createdAt,value
2018-01-11T00:00:25.994Z,6.79
2018-01-11T00:01:26.236Z,6.72
2018-01-11T00:02:25.951Z,6.63
2018-01-11T00:03:25.943Z,6.71
2018-01-11T00:04:26.178Z,6.59
2018-01-11T00:05:25.902Z,6.63
2018-01-11T00:06:26.139Z,6.62
2018-01-11T00:07:25.857Z,6.65
2018-01-11T00:08:25.838Z,6.63
2018-01-11T00:09:25.820Z,6.71
2018-01-11T00:10:25.805Z,6.69
2018-01-11T00:11:26.041Z,6.73
2018-01-11T00:12:25.762Z,6.76
2018-01-11T00:13:26.008Z,6.77
2018-01-11T00:14:25.726Z,6.69
2018-01-11T00:15:25.436Z,6.69
2018-01-11T00:16:25.682Z,6.69
2018-01-11T00:17:25.659Z,6.73
2018-01-11T00:18:25.644Z,6.72
2018-01-11T00:19:25.891Z,6.72
2018-01-11T00:20:25.879Z,6.8
2018-01-11T00:21:25.584Z,6.73
2018-01-11T00:22:25.836Z,6.69
2018-01-11T00:23:25.545Z,6.72
2018-01-11T00:24:25.533Z,6.73
2018-01-11T00:25:25.772Z,6.79
2018-01-11T00:26:25.759Z,6.76
2018-01-11T00:27:25.738Z,6.72
2018-01-11T00:28:25.181Z,6.72
2018-01-11T00:29:25.427Z,6.81
2018-01-11T00:30:25.416Z,6.76
2018-01-11T00:31:25.391Z,6.77
2018-01-11T00:32:25.635Z,6.8
2018-01-11T00:33:25.096Z,6.77
2018-01-11T00:34:25.333Z,6.76
2018-01-11T00:35:25.048Z,6.72
2018-01-11T00:36:25.569Z,6.79
2018-01-11T00:37:25.474Z,6.71
2018-01-11T00:38:25.254Z,6.71
2018-01-11T00:39:25.498Z,6.71
2018-01-11T00:40:25.545Z,6.73
2018-01-11T00:41:25.472Z,6.71
2018-01-11T00:42:25.180Z,6.71
2018-01-11T00:43:25.424Z,6.68
2018-01-11T00:44:25.405Z,6.77
2018-01-11T00:45:25.388Z,6.72
2018-01-11T00:46:25.390Z,6.73
2018-01-11T00:47:25.346Z,6.73
2018-01-11T00:48:25.332Z,6.69
2018-01-11T00:49:25.710Z,6.69
2018-01-11T00:50:24.761Z,6.58
2018-01-11T00:51:25.271Z,6.65
2018-01-11T00:52:24.989Z,6.66
2018-01-11T00:53:24.964Z,6.59
2018-01-11T00:54:24.952Z,6.61
2018-01-11T00:55:24.924Z,6.61
2018-01-11T00:56:24.644Z,6.61
2018-01-11T00:57:25.155Z,6.62
2018-01-11T00:58:25.141Z,6.56
2018-01-11T00:59:24.848Z,6.53
2018-01-11T01:00:24.827Z,6.56
2018-01-11T01:01:25.079Z,6.56
2018-01-11T01:02:25.050Z,6.47
2018-01-11T01:03:24.775Z,6.47
2018-01-11T01:04:25.017Z,6.53
2018-01-11T01:05:25.069Z,6.47
2018-01-11T01:06:24.714Z,6.46
2018-01-11T01:07:24.957Z,6.35
2018-01-11T01:08:25.004Z,6.47
2018-01-11T01:09:24.660Z,6.5
2018-01-11T01:10:24.954Z,6.35
2018-01-11T01:11:24.880Z,6.3
2018-01-11T01:12:24.864Z,6.36
2018-01-11T01:13:24.841Z,6.35
2018-01-11T01:14:24.558Z,6.4
2018-01-11T01:15:24.269Z,6.43
2018-01-11T01:16:24.786Z,6.36
2018-01-11T01:17:24.760Z,6.35
2018-01-11T01:18:24.476Z,6.36
2018-01-11T01:19:24.726Z,6.41
2018-01-11T01:20:24.702Z,6.46
2018-01-11T01:21:24.685Z,6.38
2018-01-11T01:22:24.665Z,6.4
2018-01-11T01:23:24.379Z,6.38
2018-01-11T01:24:24.368Z,6.33
2018-01-11T01:25:24.344Z,6.41
2018-01-11T01:26:24.599Z,6.26
2018-01-11T01:27:24.306Z,6.36
2018-01-11T01:28:24.545Z,6.3
2018-01-11T01:29:24.266Z,6.36
2018-01-11T01:30:23.987Z,6.43
2018-01-11T01:31:24.227Z,6.38
2018-01-11T01:32:24.210Z,6.3
2018-01-11T01:33:24.186Z,6.33
2018-01-11T01:34:23.900Z,6.43
2018-01-11T01:35:24.429Z,6.4
2018-01-11T01:36:23.864Z,6.3
2018-01-11T01:37:24.124Z,6.43
2018-01-11T01:38:24.093Z,6.41
2018-01-11T01:39:24.336Z,6.46
2018-01-11T01:40:23.788Z,6.48
2018-01-11T01:41:24.299Z,6.53
2018-01-11T01:42:24.010Z,6.51
2018-01-11T01:43:24.256Z,6.58
2018-01-11T01:44:23.977Z,6.5
2018-01-11T01:45:24.225Z,6.59
2018-01-11T01:46:23.670Z,6.56
2018-01-11T01:47:24.179Z,6.51
2018-01-11T01:48:23.892Z,6.53
2018-01-11T01:49:23.610Z,6.53
2018-01-11T01:50:24.123Z,6.48
2018-01-11T01:51:23.832Z,6.51
2018-01-11T01:52:23.551Z,6.48
2018-01-11T01:53:23.796Z,6.56
2018-01-11T01:54:23.780Z,6.59
2018-01-11T01:55:23.758Z,6.51
2018-01-11T01:56:23.733Z,6.61
2018-01-11T01:57:23.986Z,6.58
2018-01-11T01:58:23.963Z,6.54
2018-01-11T01:59:23.683Z,6.56
2018-01-11T02:00:23.664Z,6.61
2018-01-11T02:01:23.644Z,6.5
2018-01-11T02:02:23.884Z,6.51
2018-01-11T02:03:23.607Z,6.5
2018-01-11T02:04:23.846Z,6.51
2018-01-11T02:05:23.561Z,6.5
2018-01-11T02:06:23.541Z,6.44
2018-01-11T02:07:23.255Z,6.35
2018-01-11T02:08:23.770Z,6.44
2018-01-11T02:09:23.484Z,6.46
2018-01-11T02:10:23.465Z,6.3
2018-01-11T02:11:23.714Z,6.3
2018-01-11T02:12:23.423Z,6.35
2018-01-11T02:13:23.144Z,6.43
2018-01-11T02:14:23.653Z,6.4
2018-01-11T02:15:23.365Z,6.36
2018-01-11T02:16:23.620Z,6.35
2018-01-11T02:17:23.328Z,6.32
2018-01-11T02:18:23.574Z,6.3
2018-01-11T02:19:23.030Z,6.32
2018-01-11T02:20:23.537Z,6.28
2018-01-11T02:21:23.514Z,6.38
2018-01-11T02:22:23.492Z,6.3
2018-01-11T02:23:23.209Z,6.33
2018-01-11T02:24:23.454Z,6.36
2018-01-11T02:25:23.445Z,6.35
2018-01-11T02:26:22.901Z,6.26
2018-01-11T02:27:23.137Z,6.36
2018-01-11T02:28:23.377Z,6.29
2018-01-11T02:29:23.094Z,6.29
2018-01-11T02:30:23.344Z,6.3
2018-01-11T02:31:23.318Z,6.35
2018-01-11T02:32:23.037Z,6.38
2018-01-11T02:33:23.290Z,6.33
2018-01-11T02:34:22.993Z,6.36
2018-01-11T02:35:23.251Z,6.32
2018-01-11T02:36:22.955Z,6.3
2018-01-11T02:37:23.204Z,6.32
2018-01-11T02:38:22.918Z,6.3
2018-01-11T02:39:22.645Z,6.28
2018-01-11T02:40:23.145Z,6.41
2018-01-11T02:41:22.860Z,6.4
2018-01-11T02:42:22.842Z,6.38
2018-01-11T02:43:22.824Z,6.3
2018-01-11T02:44:22.803Z,6.32
2018-01-11T02:45:22.791Z,6.33
2018-01-11T02:46:22.768Z,6.36
2018-01-11T02:47:23.022Z,6.29
2018-01-11T02:48:22.992Z,6.35
2018-01-11T02:49:22.966Z,6.33
2018-01-11T02:50:22.420Z,6.22
2018-01-11T02:51:22.938Z,6.32
2018-01-11T02:52:22.640Z,6.32
2018-01-11T02:53:22.890Z,6.19
2018-01-11T02:54:22.604Z,6.25
2018-01-11T02:55:22.597Z,6.29
2018-01-11T02:56:22.301Z,6.25
2018-01-11T02:57:22.610Z,6.21
2018-01-11T02:58:22.268Z,6.3
2018-01-11T02:59:22.509Z,6.19
2018-01-11T03:00:22.491Z,6.25
2018-01-11T03:01:22.731Z,6.18
2018-01-11T03:02:22.712Z,6.29
2018-01-11T03:03:22.693Z,6.19
2018-01-11T03:04:22.676Z,6.26
2018-01-11T03:05:22.657Z,6.28
2018-01-11T03:06:22.374Z,6.28
2018-01-11T03:07:22.344Z,6.28
2018-01-11T03:08:22.331Z,6.29
2018-01-11T03:09:22.577Z,6.3
2018-01-11T03:10:22.288Z,6.32
2018-01-11T03:11:22.276Z,6.32
2018-01-11T03:12:22.251Z,6.29
2018-01-11T03:13:22.228Z,6.28
2018-01-11T03:14:22.480Z,6.32
2018-01-11T03:15:21.929Z,6.32
2018-01-11T03:16:22.174Z,6.25
2018-01-11T03:17:22.424Z,6.29
2018-01-11T03:18:22.400Z,6.3
2018-01-11T03:19:22.115Z,6.28
2018-01-11T03:20:22.104Z,6.3
2018-01-11T03:21:22.073Z,6.26
2018-01-11T03:22:22.058Z,6.3
2018-01-11T03:23:22.296Z,6.26
2018-01-11T03:24:22.280Z,6.33
2018-01-11T03:25:21.997Z,6.26
2018-01-11T03:26:21.980Z,6.3
2018-01-11T03:27:22.228Z,6.36
2018-01-11T03:28:21.936Z,6.29
2018-01-11T03:29:22.182Z,6.38
2018-01-11T03:30:21.908Z,6.3
2018-01-11T03:31:21.883Z,6.26
2018-01-11T03:32:21.864Z,6.3
2018-01-11T03:33:21.842Z,6.33
2018-01-11T03:34:21.557Z,6.32
2018-01-11T03:35:22.063Z,6.41
2018-01-11T03:36:21.786Z,6.43
2018-01-11T03:37:21.496Z,6.36
2018-01-11T03:38:21.747Z,6.35
2018-01-11T03:39:21.722Z,6.4
2018-01-11T03:40:21.967Z,6.33
2018-01-11T03:41:21.950Z,6.4
2018-01-11T03:42:21.679Z,6.46
2018-01-11T03:43:21.644Z,6.4
2018-01-11T03:44:21.628Z,6.4
2018-01-11T03:45:21.873Z,6.47
2018-01-11T03:46:21.854Z,6.4
2018-01-11T03:47:21.572Z,6.33
2018-01-11T03:48:21.814Z,6.47
2018-01-11T03:49:21.527Z,6.32
2018-01-11T03:50:21.506Z,6.41
2018-01-11T03:51:21.488Z,6.43
2018-01-11T03:52:21.734Z,6.48
2018-01-11T03:53:21.447Z,6.46
2018-01-11T03:54:21.698Z,6.44
2018-01-11T03:55:21.680Z,6.43
2018-01-11T03:56:21.392Z,6.5
2018-01-11T03:57:21.645Z,6.43
2018-01-11T03:58:21.356Z,6.53
2018-01-11T03:59:21.597Z,6.46
2018-01-11T04:00:21.317Z,6.48
2018-01-11T04:01:21.565Z,6.43
2018-01-11T04:02:21.543Z,6.53
2018-01-11T04:03:21.516Z,6.48
2018-01-11T04:04:20.977Z,6.5
2018-01-11T04:05:21.217Z,6.56
2018-01-11T04:06:21.190Z,6.53
2018-01-11T04:07:20.911Z,6.5
2018-01-11T04:08:21.423Z,6.51
2018-01-11T04:09:21.404Z,6.53
2018-01-11T04:10:20.863Z,6.53
2018-01-11T04:11:21.104Z,6.5
2018-01-11T04:12:21.077Z,6.61
2018-01-11T04:13:21.324Z,6.54
2018-01-11T04:14:21.042Z,6.51
2018-01-11T04:15:20.761Z,6.5
2018-01-11T04:16:21.275Z,6.58
2018-01-11T04:17:20.986Z,6.61
2018-01-11T04:18:21.238Z,6.54
2018-01-11T04:19:21.206Z,6.51
2018-01-11T04:20:20.659Z,6.62
2018-01-11T04:21:20.642Z,6.53
2018-01-11T04:22:21.146Z,6.53
2018-01-11T04:23:20.864Z,6.61
2018-01-11T04:24:20.847Z,6.51
2018-01-11T04:25:20.827Z,6.5
2018-01-11T04:26:21.081Z,6.54
2018-01-11T04:27:21.061Z,6.51
2018-01-11T04:28:21.030Z,6.47
2018-01-11T04:29:21.019Z,6.56
2018-01-11T04:30:20.468Z,6.58
2018-01-11T04:31:20.970Z,6.62
2018-01-11T04:32:20.959Z,6.58
2018-01-11T04:33:20.408Z,6.54
2018-01-11T04:34:20.394Z,6.62
2018-01-11T04:35:20.632Z,6.62
2018-01-11T04:36:20.876Z,6.65
2018-01-11T04:37:20.867Z,6.59
2018-01-11T04:38:20.838Z,6.56
2018-01-11T04:39:20.558Z,6.65
2018-01-11T04:40:20.534Z,6.62
2018-01-11T04:41:20.517Z,6.56
2018-01-11T04:42:20.497Z,6.61
2018-01-11T04:43:20.739Z,6.58
2018-01-11T04:44:20.460Z,6.65
2018-01-11T04:45:20.440Z,6.66
2018-01-11T04:46:20.417Z,6.62
2018-01-11T04:47:20.666Z,6.66
2018-01-11T04:48:20.645Z,6.59
2018-01-11T04:49:20.096Z,6.61
2018-01-11T04:50:20.548Z,6.69
2018-01-11T04:51:20.594Z,6.61
2018-01-11T04:52:20.573Z,6.65
2018-01-11T04:53:20.550Z,6.62
2018-01-11T04:54:20.003Z,6.69
2018-01-11T04:55:20.512Z,6.65
2018-01-11T04:56:20.221Z,6.68
2018-01-11T04:57:20.471Z,6.62
2018-01-11T04:58:20.185Z,6.69
2018-01-11T04:59:20.450Z,6.69
2018-01-11T05:00:20.415Z,6.65
2018-01-11T05:01:20.409Z,6.59
2018-01-11T05:02:20.110Z,6.62
2018-01-11T05:03:20.348Z,6.62
2018-01-11T05:04:20.344Z,6.76
2018-01-11T05:05:20.049Z,6.72
2018-01-11T05:06:20.295Z,6.71
2018-01-11T05:07:20.015Z,6.69
2018-01-11T05:08:19.996Z,6.72
2018-01-11T05:09:19.974Z,6.68
2018-01-11T05:10:19.971Z,6.66
2018-01-11T05:11:19.938Z,6.65
2018-01-11T05:12:19.933Z,6.63
2018-01-11T05:13:19.901Z,6.73
2018-01-11T05:14:20.137Z,6.69
2018-01-11T05:15:19.862Z,6.66
2018-01-11T05:16:20.105Z,6.69
2018-01-11T05:17:19.824Z,6.69
2018-01-11T05:18:20.063Z,6.63
2018-01-11T05:19:19.780Z,6.72
2018-01-11T05:20:19.767Z,6.69
2018-01-11T05:21:19.741Z,6.63
2018-01-11T05:22:19.454Z,6.66
2018-01-11T05:23:19.706Z,6.76
2018-01-11T05:24:19.953Z,6.73
2018-01-11T05:25:19.665Z,6.61
2018-01-11T05:26:19.910Z,6.66
2018-01-11T05:27:19.626Z,6.65
2018-01-11T05:28:19.341Z,6.65
2018-01-11T05:29:19.852Z,6.66
2018-01-11T05:30:19.842Z,6.62
2018-01-11T05:31:19.811Z,6.62
2018-01-11T05:32:19.529Z,6.63
2018-01-11T05:33:19.776Z,6.61
2018-01-11T05:34:19.753Z,6.69
2018-01-11T05:35:19.472Z,6.66
2018-01-11T05:36:19.719Z,6.62
2018-01-11T05:37:19.426Z,6.63
2018-01-11T05:38:19.416Z,6.63
2018-01-11T05:39:19.663Z,6.65
2018-01-11T05:40:19.642Z,6.61
2018-01-11T05:41:19.615Z,6.66
2018-01-11T05:42:19.330Z,6.62
2018-01-11T05:43:19.576Z,6.65
2018-01-11T05:44:19.302Z,6.54
2018-01-11T05:45:19.275Z,6.65
2018-01-11T05:46:19.524Z,6.61
2018-01-11T05:47:19.236Z,6.59
2018-01-11T05:48:19.479Z,6.62
2018-01-11T05:49:19.194Z,6.62
2018-01-11T05:50:19.196Z,6.59
2018-01-11T05:51:19.422Z,6.66
2018-01-11T05:52:19.137Z,6.59
2018-01-11T05:53:18.853Z,6.61
2018-01-11T05:54:19.367Z,6.54
2018-01-11T05:55:19.345Z,6.59
2018-01-11T05:56:19.357Z,6.61
2018-01-11T05:57:19.306Z,6.62
2018-01-11T05:58:19.030Z,6.69
2018-01-11T05:59:19.265Z,6.61
2018-01-11T06:00:18.991Z,6.62
2018-01-11T06:01:19.231Z,6.61
2018-01-11T06:02:18.952Z,6.62
2018-01-11T06:03:19.199Z,6.59
2018-01-11T06:04:18.917Z,6.61
2018-01-11T06:05:19.160Z,6.54
2018-01-11T06:06:18.864Z,6.58
2018-01-11T06:07:18.849Z,6.65
2018-01-11T06:08:18.837Z,6.65
2018-01-11T06:09:18.819Z,6.62
2018-01-11T06:10:18.797Z,6.61
2018-01-11T06:11:19.107Z,6.69
2018-01-11T06:12:18.758Z,6.59
2018-01-11T06:13:18.731Z,6.62
2018-01-11T06:14:18.980Z,6.58
2018-01-11T06:15:18.433Z,6.51
2018-01-11T06:16:18.949Z,6.62
2018-01-11T06:17:18.921Z,6.56
2018-01-11T06:18:18.372Z,6.47
2018-01-11T06:19:18.618Z,6.51
2018-01-11T06:20:18.604Z,6.56
2018-01-11T06:21:18.845Z,6.51
2018-01-11T06:22:18.559Z,6.54
2018-01-11T06:23:18.803Z,6.56
2018-01-11T06:24:18.791Z,6.54
2018-01-11T06:25:18.236Z,6.51
2018-01-11T06:26:18.749Z,6.54
2018-01-11T06:27:18.460Z,6.58
2018-01-11T06:28:18.708Z,6.5
2018-01-11T06:29:18.791Z,6.54
2018-01-11T06:30:18.410Z,6.61
2018-01-11T06:31:18.381Z,6.65
2018-01-11T06:32:18.374Z,6.63
2018-01-11T06:33:18.343Z,6.53
2018-01-11T06:34:18.585Z,6.61
2018-01-11T06:35:18.043Z,6.69
2018-01-11T06:36:18.560Z,6.58
2018-01-11T06:37:18.278Z,6.61
2018-01-11T06:38:18.513Z,6.58
2018-01-11T06:39:18.225Z,6.63
2018-01-11T06:40:18.207Z,6.65
2018-01-11T06:41:18.189Z,6.58
2018-01-11T06:42:18.493Z,6.58
2018-01-11T06:43:18.412Z,6.65
2018-01-11T06:44:18.128Z,6.58
2018-01-11T06:45:18.377Z,6.62
2018-01-11T06:46:18.360Z,6.65
2018-01-11T06:47:18.077Z,6.63
2018-01-11T06:48:18.315Z,6.58
2018-01-11T06:49:18.035Z,6.61
2018-01-11T06:50:18.482Z,6.68
2018-01-11T06:51:17.990Z,6.62
2018-01-11T06:52:17.713Z,6.56
2018-01-11T06:53:17.956Z,6.62
2018-01-11T06:54:18.200Z,6.62
2018-01-11T06:55:18.189Z,6.65
2018-01-11T06:56:17.894Z,6.56
2018-01-11T06:57:17.881Z,6.59
2018-01-11T06:58:17.856Z,6.62
2018-01-11T06:59:18.104Z,6.66
2018-01-11T07:00:17.917Z,6.71
2018-01-11T07:01:18.084Z,6.65
2018-01-11T07:02:17.515Z,6.73
2018-01-11T07:03:17.769Z,6.72
2018-01-11T07:04:18.007Z,6.69
2018-01-11T07:05:17.736Z,6.73
2018-01-11T07:06:17.980Z,6.71
2018-01-11T07:07:17.948Z,6.69
2018-01-11T07:08:17.932Z,6.72
2018-01-11T07:09:17.383Z,6.73
2018-01-11T07:10:17.357Z,6.69
2018-01-11T07:11:17.872Z,6.71
2018-01-11T07:12:17.851Z,6.69
2018-01-11T07:13:17.568Z,6.71
2018-01-11T07:14:17.556Z,6.71
2018-01-11T07:15:17.271Z,6.69
2018-01-11T07:16:17.508Z,6.66
2018-01-11T07:17:17.490Z,6.61
2018-01-11T07:18:17.473Z,6.68
2018-01-11T07:19:17.718Z,6.71
2018-01-11T07:20:17.166Z,6.73
2018-01-11T07:21:17.424Z,6.77
2018-01-11T07:22:17.394Z,6.72
2018-01-11T07:23:17.374Z,6.66
2018-01-11T07:24:17.354Z,6.71
2018-01-11T07:25:17.330Z,6.66
2018-01-11T07:26:17.595Z,6.59
2018-01-11T07:27:17.294Z,6.62
2018-01-11T07:28:17.545Z,6.62
2018-01-11T07:29:17.738Z,6.66
2018-01-11T07:30:17.517Z,6.65
2018-01-11T07:31:17.486Z,6.61
2018-01-11T07:32:17.463Z,6.63
2018-01-11T07:33:17.186Z,6.69
2018-01-11T07:34:17.533Z,6.63
2018-01-11T07:35:17.139Z,6.76
2018-01-11T07:36:17.382Z,6.68
2018-01-11T07:37:17.101Z,6.69
2018-01-11T07:38:17.345Z,6.69
2018-01-11T07:39:17.320Z,6.77
2018-01-11T07:40:17.304Z,6.72
2018-01-11T07:41:17.295Z,6.79
2018-01-11T07:42:17.280Z,6.73
2018-01-11T07:43:16.982Z,6.68
2018-01-11T07:44:17.227Z,6.77
2018-01-11T07:45:17.209Z,6.72
2018-01-11T07:46:17.248Z,6.73
2018-01-11T07:47:17.177Z,6.62
2018-01-11T07:48:16.894Z,6.65
2018-01-11T07:49:17.142Z,6.61
2018-01-11T07:50:17.116Z,6.69
2018-01-11T07:51:16.571Z,6.62
2018-01-11T07:52:17.072Z,6.65
2018-01-11T07:53:17.059Z,6.65
2018-01-11T07:54:16.769Z,6.59
2018-01-11T07:55:17.022Z,6.66
2018-01-11T07:56:16.993Z,6.61
2018-01-11T07:57:16.448Z,6.63
2018-01-11T07:58:16.695Z,6.66
2018-01-11T07:59:16.933Z,6.62
2018-01-11T08:00:16.654Z,6.62
2018-01-11T08:01:16.638Z,6.59
2018-01-11T08:02:16.878Z,6.69
2018-01-11T08:03:16.602Z,6.76
2018-01-11T08:04:16.878Z,6.65
2018-01-11T08:05:16.557Z,6.69
2018-01-11T08:06:16.804Z,6.77
2018-01-11T08:07:16.777Z,6.79
2018-01-11T08:08:16.767Z,6.77
2018-01-11T08:09:16.762Z,6.68
2018-01-11T08:10:16.463Z,6.71
2018-01-11T08:11:16.175Z,6.76
2018-01-11T08:12:16.421Z,6.66
2018-01-11T08:13:16.663Z,6.72
2018-01-11T08:14:16.386Z,6.72
2018-01-11T08:15:16.361Z,6.68
2018-01-11T08:16:16.083Z,6.72
2018-01-11T08:17:16.584Z,6.72
2018-01-11T08:18:16.042Z,6.71
2018-01-11T08:19:16.292Z,6.77
2018-01-11T08:20:16.647Z,6.72
2018-01-11T08:21:16.244Z,6.71
2018-01-11T08:22:16.495Z,6.76
2018-01-11T08:23:16.476Z,6.81
2018-01-11T08:24:16.194Z,6.81
2018-01-11T08:25:16.449Z,6.77
2018-01-11T08:26:16.152Z,6.77
2018-01-11T08:27:16.401Z,6.79
2018-01-11T08:28:15.853Z,6.79
2018-01-11T08:29:15.827Z,6.81
2018-01-11T08:30:16.085Z,6.84
2018-01-11T08:31:16.056Z,6.87
2018-01-11T08:32:16.310Z,6.86
2018-01-11T08:33:16.293Z,6.86
2018-01-11T08:34:16.258Z,6.9
2018-01-11T08:35:16.246Z,6.91
2018-01-11T08:36:15.965Z,6.83
2018-01-11T08:37:15.728Z,6.89
2018-01-11T08:38:15.968Z,6.86
2018-01-11T08:39:15.902Z,6.9
2018-01-11T08:40:15.881Z,6.84
2018-01-11T08:41:16.133Z,6.97
2018-01-11T08:42:15.851Z,6.87
2018-01-11T08:43:16.087Z,7.01
2018-01-11T08:44:15.811Z,6.86
2018-01-11T08:45:15.786Z,6.86
2018-01-11T08:46:16.037Z,7.04
2018-01-11T08:47:15.760Z,6.97
2018-01-11T08:48:15.733Z,6.97
2018-01-11T08:49:15.447Z,6.89
2018-01-11T08:50:16.165Z,7.01
2018-01-11T08:51:15.674Z,6.89
2018-01-11T08:52:15.662Z,6.97
2018-01-11T08:53:15.633Z,6.87
2018-01-11T08:54:15.618Z,6.98
2018-01-11T08:55:15.597Z,6.98
2018-01-11T08:56:15.837Z,6.95
2018-01-11T08:57:15.817Z,6.98
2018-01-11T08:58:15.541Z,6.86
2018-01-11T08:59:15.792Z,7.01
2018-01-11T09:00:15.502Z,6.87
2018-01-11T09:01:15.749Z,6.9
2018-01-11T09:02:15.722Z,6.86
2018-01-11T09:03:15.446Z,6.89
2018-01-11T09:04:15.687Z,6.84
2018-01-11T09:05:15.667Z,6.91
2018-01-11T09:06:15.385Z,6.9
2018-01-11T09:07:15.625Z,6.94
2018-01-11T09:08:15.608Z,6.87
2018-01-11T09:09:15.595Z,6.86
2018-01-11T09:10:15.319Z,6.91
2018-01-11T09:11:15.299Z,6.91
2018-01-11T09:12:15.279Z,6.95
2018-01-11T09:13:14.992Z,6.98
2018-01-11T09:14:15.236Z,7.05
2018-01-11T09:15:15.216Z,6.99
2018-01-11T09:16:15.473Z,7.01
2018-01-11T09:17:15.176Z,6.94
2018-01-11T09:18:15.419Z,6.98
2018-01-11T09:19:15.137Z,6.98
2018-01-11T09:20:15.124Z,7.04
2018-01-11T09:21:14.841Z,7.07
2018-01-11T09:22:15.344Z,7.13
2018-01-11T09:23:15.064Z,7.19
2018-01-11T09:24:15.043Z,7.19
2018-01-11T09:25:15.298Z,7.12
2018-01-11T09:26:15.014Z,7.22
2018-01-11T09:27:15.253Z,7.16
2018-01-11T09:28:14.969Z,7.26
2018-01-11T09:29:14.694Z,7.34
2018-01-11T09:30:14.934Z,7.31
2018-01-11T09:31:14.915Z,7.27
2018-01-11T09:32:14.900Z,7.37
2018-01-11T09:33:15.141Z,7.38
2018-01-11T09:34:14.856Z,7.38
2018-01-11T09:35:14.888Z,7.47
2018-01-11T09:36:14.818Z,7.44
2018-01-11T09:37:14.806Z,7.53
2018-01-11T09:38:15.052Z,7.47
2018-01-11T09:39:15.035Z,7.5
2018-01-11T09:40:15.018Z,7.53
2018-01-11T09:41:14.995Z,7.66
2018-01-11T09:42:14.973Z,7.63
2018-01-11T09:43:14.956Z,7.67
2018-01-11T09:44:14.677Z,7.67
2018-01-11T09:45:14.391Z,7.69
2018-01-11T09:46:14.642Z,7.78
2018-01-11T09:47:14.619Z,7.74
2018-01-11T09:48:14.599Z,7.71
2018-01-11T09:49:14.320Z,7.74
2018-01-11T09:50:14.845Z,7.9
2018-01-11T09:51:14.549Z,7.89
2018-01-11T09:52:14.530Z,7.85
2018-01-11T09:53:14.514Z,7.85
2018-01-11T09:54:14.493Z,7.85
2018-01-11T09:55:14.748Z,7.89
2018-01-11T09:56:14.458Z,7.93
2018-01-11T09:57:14.438Z,8
2018-01-11T09:58:14.688Z,8.02
2018-01-11T09:59:14.403Z,8.02
2018-01-11T10:00:14.395Z,8.04
2018-01-11T10:01:14.644Z,8.07
2018-01-11T10:02:14.350Z,8.11
2018-01-11T10:03:14.334Z,8.11
2018-01-11T10:04:14.579Z,8.11
2018-01-11T10:05:14.563Z,8.12
2018-01-11T10:06:14.278Z,8.22
2018-01-11T10:07:14.262Z,8.18
2018-01-11T10:08:14.512Z,8.21
2018-01-11T10:09:14.226Z,8.3
2018-01-11T10:10:14.475Z,8.29
2018-01-11T10:11:13.931Z,8.36
2018-01-11T10:12:14.494Z,8.22
2018-01-11T10:13:14.158Z,8.37
2018-01-11T10:14:14.403Z,8.32
2018-01-11T10:15:14.387Z,8.32
2018-01-11T10:16:13.838Z,8.33
2018-01-11T10:17:13.822Z,8.33
2018-01-11T10:18:13.809Z,8.35
2018-01-11T10:19:14.055Z,8.36
2018-01-11T10:20:13.769Z,8.4
2018-01-11T10:21:13.751Z,8.32
2018-01-11T10:22:14.274Z,8.39
2018-01-11T10:23:13.982Z,8.48
2018-01-11T10:24:13.966Z,8.44
2018-01-11T10:25:13.957Z,8.48
2018-01-11T10:26:13.937Z,8.5
2018-01-11T10:27:13.652Z,8.5
2018-01-11T10:28:14.159Z,8.53
2018-01-11T10:29:13.889Z,8.57
2018-01-11T10:30:14.131Z,8.51
2018-01-11T10:31:13.848Z,8.58
2018-01-11T10:32:14.092Z,8.51
2018-01-11T10:33:13.817Z,8.62
2018-01-11T10:34:13.796Z,8.63
2018-01-11T10:35:13.517Z,8.58
2018-01-11T10:36:13.763Z,8.55
2018-01-11T10:37:14.013Z,8.63
2018-01-11T10:38:13.996Z,8.6
2018-01-11T10:39:13.711Z,8.58
2018-01-11T10:40:13.701Z,8.62
2018-01-11T10:41:13.683Z,8.65
2018-01-11T10:42:13.400Z,8.63
2018-01-11T10:43:13.955Z,8.62
2018-01-11T10:44:13.629Z,8.73
2018-01-11T10:45:13.608Z,8.55
2018-01-11T10:46:13.860Z,8.69
2018-01-11T10:47:13.574Z,8.68
2018-01-11T10:48:13.828Z,8.73
2018-01-11T10:49:13.542Z,8.76
2018-01-11T10:50:14.197Z,8.76
2018-01-11T10:51:13.248Z,8.75
2018-01-11T10:52:13.233Z,8.69
2018-01-11T10:53:13.737Z,8.66
2018-01-11T10:54:13.197Z,8.62
2018-01-11T10:55:13.441Z,8.66
2018-01-11T10:56:13.694Z,8.65
2018-01-11T10:57:13.410Z,8.66
2018-01-11T10:58:13.394Z,8.68
2018-01-11T10:59:13.373Z,8.58
2018-01-11T11:00:13.354Z,8.58
2018-01-11T11:01:13.336Z,8.57
2018-01-11T11:02:13.595Z,8.57
2018-01-11T11:03:13.569Z,8.63
2018-01-11T11:04:13.291Z,8.58
2018-01-11T11:05:13.548Z,8.65
2018-01-11T11:06:13.267Z,8.65
2018-01-11T11:07:13.503Z,8.57
2018-01-11T11:08:13.490Z,8.62
2018-01-11T11:09:13.256Z,8.54
2018-01-11T11:10:13.192Z,8.6
2018-01-11T11:11:13.431Z,8.55
2018-01-11T11:12:13.156Z,8.53
2018-01-11T11:13:13.403Z,8.58
2018-01-11T11:14:13.390Z,8.53
2018-01-11T11:15:13.368Z,8.51
2018-01-11T11:16:13.083Z,8.5
2018-01-11T11:17:13.069Z,8.6
2018-01-11T11:18:13.311Z,8.55
2018-01-11T11:19:13.031Z,8.58
2018-01-11T11:20:13.014Z,8.42
2018-01-11T11:21:12.996Z,8.44
2018-01-11T11:22:12.983Z,8.4
2018-01-11T11:23:12.697Z,8.44
2018-01-11T11:24:13.212Z,8.53
2018-01-11T11:25:12.931Z,8.51
2018-01-11T11:26:13.175Z,8.54
2018-01-11T11:27:12.891Z,8.57
2018-01-11T11:28:12.874Z,8.6
2018-01-11T11:29:12.859Z,8.6
2018-01-11T11:30:13.109Z,8.57
2018-01-11T11:31:13.089Z,8.6
2018-01-11T11:32:12.807Z,8.66
2018-01-11T11:33:12.523Z,8.65
2018-01-11T11:34:12.771Z,8.68
2018-01-11T11:35:12.753Z,8.63
2018-01-11T11:36:12.740Z,8.58
2018-01-11T11:37:12.990Z,8.65
2018-01-11T11:38:12.702Z,8.62
2018-01-11T11:39:12.688Z,8.51
2018-01-11T11:40:12.939Z,8.51
2018-01-11T11:41:12.920Z,8.6
2018-01-11T11:42:12.894Z,8.53
2018-01-11T11:43:12.878Z,8.58
2018-01-11T11:44:12.601Z,8.57
2018-01-11T11:45:12.845Z,8.55
2018-01-11T11:46:12.566Z,8.53
2018-01-11T11:47:12.544Z,8.55
2018-01-11T11:48:12.263Z,8.53
2018-01-11T11:49:12.507Z,8.47
2018-01-11T11:50:12.229Z,8.48
2018-01-11T11:51:12.475Z,8.48
2018-01-11T11:52:12.456Z,8.45
2018-01-11T11:53:12.708Z,8.45
2018-01-11T11:54:12.685Z,8.48
2018-01-11T11:55:12.674Z,8.4
2018-01-11T11:56:12.648Z,8.47
2018-01-11T11:57:12.374Z,8.47
2018-01-11T11:58:12.628Z,8.51
2018-01-11T11:59:12.609Z,8.51
2018-01-11T12:00:12.056Z,8.51
2018-01-11T12:01:12.304Z,8.53
2018-01-11T12:02:12.289Z,8.54
2018-01-11T12:03:12.536Z,8.57
2018-01-11T12:04:11.988Z,8.6
2018-01-11T12:05:12.237Z,8.6
2018-01-11T12:06:12.217Z,8.66
2018-01-11T12:07:12.461Z,8.69
2018-01-11T12:08:12.451Z,8.69
2018-01-11T12:09:11.906Z,8.71
2018-01-11T12:10:12.413Z,8.73
2018-01-11T12:11:11.867Z,8.78
2018-01-11T12:12:12.373Z,8.75
2018-01-11T12:13:12.096Z,8.81
2018-01-11T12:14:12.076Z,8.83
2018-01-11T12:15:11.792Z,8.86
2018-01-11T12:16:12.306Z,8.78
2018-01-11T12:17:12.025Z,8.86
2018-01-11T12:18:12.277Z,8.81
2018-01-11T12:19:11.728Z,8.86
2018-01-11T12:20:12.241Z,8.96
2018-01-11T12:21:12.253Z,8.91
2018-01-11T12:22:11.957Z,8.96
2018-01-11T12:23:11.659Z,8.94
2018-01-11T12:24:12.178Z,8.94
2018-01-11T12:25:11.888Z,8.93
2018-01-11T12:26:12.139Z,8.91
2018-01-11T12:27:11.861Z,8.91
2018-01-11T12:28:12.112Z,8.96
2018-01-11T12:29:11.823Z,9.09
2018-01-11T12:30:11.544Z,8.91
2018-01-11T12:31:12.105Z,9.05
2018-01-11T12:32:12.038Z,9.01
2018-01-11T12:33:11.759Z,9.01
2018-01-11T12:34:12.001Z,8.97
2018-01-11T12:35:11.983Z,9.04
2018-01-11T12:36:11.969Z,9.05
2018-01-11T12:37:11.691Z,9.06
2018-01-11T12:38:11.424Z,9.1
2018-01-11T12:39:11.924Z,9.13
2018-01-11T12:40:11.637Z,9.15
2018-01-11T12:41:11.622Z,9.16
2018-01-11T12:42:11.606Z,9.2
2018-01-11T12:43:11.587Z,9.2
2018-01-11T12:44:11.568Z,9.18
2018-01-11T12:45:11.816Z,9.18
2018-01-11T12:46:11.545Z,9.2
2018-01-11T12:47:11.520Z,9.21
2018-01-11T12:48:11.502Z,9.18
2018-01-11T12:49:11.488Z,9.2
2018-01-11T12:50:11.739Z,9.23
2018-01-11T12:51:11.719Z,9.25
2018-01-11T12:52:11.710Z,9.28
2018-01-11T12:53:11.423Z,9.25
2018-01-11T12:54:11.411Z,9.27
2018-01-11T12:55:11.398Z,9.31
2018-01-11T12:56:11.370Z,9.3
2018-01-11T12:57:11.366Z,9.28
2018-01-11T12:58:11.340Z,9.31
2018-01-11T12:59:11.585Z,9.28
2018-01-11T13:00:11.571Z,9.27
2018-01-11T13:01:11.559Z,9.24
2018-01-11T13:02:11.276Z,9.23
2018-01-11T13:03:11.521Z,9.31
2018-01-11T13:04:11.240Z,9.27
2018-01-11T13:05:10.958Z,9.27
2018-01-11T13:06:10.946Z,9.27
2018-01-11T13:07:10.923Z,9.3
2018-01-11T13:08:11.438Z,9.32
2018-01-11T13:09:11.157Z,9.34
2018-01-11T13:10:11.140Z,9.31
2018-01-11T13:11:11.384Z,9.28
2018-01-11T13:12:11.371Z,9.35
2018-01-11T13:13:11.362Z,9.31
2018-01-11T13:14:11.342Z,9.32
2018-01-11T13:15:11.342Z,9.34
2018-01-11T13:16:11.307Z,9.42
2018-01-11T13:17:11.023Z,9.38
2018-01-11T13:18:11.004Z,9.4
2018-01-11T13:19:10.988Z,9.42
2018-01-11T13:20:11.259Z,9.34
2018-01-11T13:21:10.958Z,9.35